createdAt,value
2022-11-29T00:01:27.884Z,101310.70
2022-11-29T00:03:56.364Z,101302.95
2022-11-29T00:06:33.123Z,101308.66
2022-11-29T00:09:03.521Z,101307.06
2022-11-29T00:11:53.555Z,101299.41
2022-11-29T00:14:22.401Z,101305.13
2022-11-29T00:16:58.212Z,101304.80
2022-11-29T00:19:26.154Z,101301.60
2022-11-29T00:21:53.874Z,101302.88
2022-11-29T00:24:21.805Z,101301.60
2022-11-29T00:26:49.589Z,101292.74
2022-11-29T00:29:17.309Z,101294.77
2022-11-29T00:31:45.203Z,101302.55
2022-11-29T00:34:13.597Z,101298.43
2022-11-29T00:36:41.586Z,101293.20
2022-11-29T00:39:12.760Z,101296.83
2022-11-29T00:41:40.754Z,101287.48
2022-11-29T00:44:08.860Z,101294.77
2022-11-29T00:46:36.639Z,101293.52
2022-11-29T00:49:04.880Z,101289.90
2022-11-29T00:51:32.898Z,101291.46
2022-11-29T00:54:00.567Z,101291.79
2022-11-29T00:56:28.275Z,101286.10
2022-11-29T00:58:56.076Z,101289.27
2022-11-29T01:01:23.758Z,101289.77
2022-11-29T01:03:51.439Z,101288.49
2022-11-29T01:06:20.403Z,101287.25
2022-11-29T01:08:48.889Z,101281.20
2022-11-29T01:11:23.553Z,101291.01
2022-11-29T01:13:52.730Z,101285.32
2022-11-29T01:16:20.510Z,101286.10
2022-11-29T01:18:48.580Z,101291.14
2022-11-29T01:21:19.387Z,101289.99
2022-11-29T01:23:48.571Z,101289.66
2022-11-29T01:26:19.598Z,101292.05
2022-11-29T01:28:50.143Z,101299.48
2022-11-29T01:31:23.829Z,101305.30
2022-11-29T01:33:55.564Z,101290.71
2022-11-29T01:36:23.371Z,101297.65
2022-11-29T01:38:51.192Z,101296.08
2022-11-29T01:41:25.155Z,101291.63
2022-11-29T01:44:04.531Z,101297.22
2022-11-29T01:46:37.469Z,101294.67
2022-11-29T01:49:30.189Z,101298.01
2022-11-29T01:52:04.003Z,101302.13
2022-11-29T01:54:33.340Z,101288.66
2022-11-29T01:57:02.696Z,101293.10
2022-11-29T01:59:31.368Z,101288.78
2022-11-29T02:02:07.535Z,101294.02
2022-11-29T02:04:36.652Z,101288.45
2022-11-29T02:07:05.337Z,101294.15
2022-11-29T02:09:32.949Z,101285.25
2022-11-29T02:12:38.086Z,101290.65
2022-11-29T02:15:09.313Z,101290.29
2022-11-29T02:17:58.659Z,101289.50
2022-11-29T02:20:47.385Z,101285.52
2022-11-29T02:23:48.629Z,101283.12
2022-11-29T02:26:53.739Z,101281.52
2022-11-29T02:29:42.476Z,101289.08
2022-11-29T02:32:28.413Z,101288.72
2022-11-29T02:35:05.064Z,101292.84
2022-11-29T02:37:51.473Z,101290.45
2022-11-29T02:40:37.537Z,101291.23
2022-11-29T02:43:39.075Z,101289.77
2022-11-29T02:46:13.684Z,101299.90
2022-11-29T02:49:03.146Z,101281.55
2022-11-29T02:51:47.651Z,101298.66
2022-11-29T02:54:21.522Z,101301.18
2022-11-29T02:57:01.225Z,101306.87
2022-11-29T02:59:37.783Z,101297.97
2022-11-29T03:02:21.174Z,101296.70
2022-11-29T03:04:56.354Z,101297.05
2022-11-29T03:07:36.491Z,101295.48
2022-11-29T03:10:04.062Z,101299.45
2022-11-29T03:12:50.452Z,101304.35
2022-11-29T03:15:47.668Z,101300.69
2022-11-29T03:18:52.082Z,101299.12
2022-11-29T03:21:49.766Z,101310.40
2022-11-29T03:24:27.298Z,101301.83
2022-11-29T03:27:07.195Z,101307.20
2022-11-29T03:29:41.669Z,101305.63
2022-11-29T03:32:30.662Z,101303.20
2022-11-29T03:35:26.177Z,101313.02
2022-11-29T03:38:12.112Z,101313.34
2022-11-29T03:41:02.312Z,101314.16
2022-11-29T03:43:56.994Z,101315.76
2022-11-29T03:46:36.203Z,101310.40
2022-11-29T03:49:12.366Z,101314.81
2022-11-29T03:51:58.057Z,101324.20
2022-11-29T03:54:33.868Z,101314.39
2022-11-29T03:57:01.836Z,101321.68
2022-11-29T03:59:39.201Z,101317.10
2022-11-29T04:02:15.869Z,101315.86
2022-11-29T04:05:05.266Z,101320.41
2022-11-29T04:07:46.524Z,101312.79
2022-11-29T04:10:32.222Z,101317.00
2022-11-29T04:13:30.244Z,101317.13
2022-11-29T04:16:19.120Z,101312.79
2022-11-29T04:19:06.604Z,101317.46
2022-11-29T04:21:49.410Z,101316.80
2022-11-29T04:24:55.623Z,101312.00
2022-11-29T04:27:31.246Z,101309.29
2022-11-29T04:30:07.702Z,101314.48
2022-11-29T04:33:14.849Z,101314.29
2022-11-29T04:35:56.531Z,101318.87
2022-11-29T04:38:44.399Z,101313.70
2022-11-29T04:41:38.412Z,101321.09
2022-11-29T04:44:27.157Z,101320.44
2022-11-29T04:47:03.369Z,101329.07
2022-11-29T04:49:49.617Z,101323.97
2022-11-29T04:52:41.760Z,101325.44
2022-11-29T04:55:30.499Z,101330.80
2022-11-29T04:58:14.301Z,101324.03
2022-11-29T05:00:53.403Z,101335.77
2022-11-29T05:03:34.422Z,101331.69
2022-11-29T05:06:24.650Z,101342.28
2022-11-29T05:09:19.246Z,101345.03
2022-11-29T05:12:00.918Z,101345.68
2022-11-29T05:14:47.458Z,101342.41
2022-11-29T05:17:36.739Z,101352.19
2022-11-29T05:20:27.636Z,101353.79
2022-11-29T05:23:20.238Z,101354.25
2022-11-29T05:25:50.621Z,101358.01
2022-11-29T05:28:28.692Z,101361.28
2022-11-29T05:31:31.297Z,101365.27
2022-11-29T05:34:17.767Z,101363.34
2022-11-29T05:36:59.085Z,101362.88
2022-11-29T05:39:51.572Z,101368.12
2022-11-29T05:42:40.448Z,101364.45
2022-11-29T05:45:28.756Z,101368.90
2022-11-29T05:48:07.311Z,101373.02
2022-11-29T05:50:49.468Z,101373.02
2022-11-29T05:53:32.362Z,101378.71
2022-11-29T05:56:10.245Z,101383.94
2022-11-29T05:59:04.124Z,101385.87
2022-11-29T06:01:57.148Z,101389.08
2022-11-29T06:04:34.590Z,101387.84
2022-11-29T06:07:15.899Z,101387.05
2022-11-29T06:10:02.043Z,101390.32
2022-11-29T06:12:33.002Z,101387.84
2022-11-29T06:15:07.430Z,101388.09
2022-11-29T06:18:11.637Z,101390.12
2022-11-29T06:20:39.224Z,101387.60
2022-11-29T06:23:18.827Z,101386.49
2022-11-29T06:26:04.923Z,101390.12
2022-11-29T06:28:42.704Z,101400.36
2022-11-29T06:31:24.780Z,101389.34
2022-11-29T06:34:10.423Z,101393.42
2022-11-29T06:37:01.035Z,101402.77
2022-11-29T06:39:28.975Z,101394.57
2022-11-29T06:41:56.733Z,101394.57
2022-11-29T06:44:24.724Z,101399.90
2022-11-29T06:47:05.211Z,101398.66
2022-11-29T06:49:58.781Z,101400.26
2022-11-29T06:52:45.527Z,101405.62
2022-11-29T06:55:28.408Z,101399.12
2022-11-29T06:58:43.759Z,101419.39
2022-11-29T07:01:28.209Z,101416.18
2022-11-29T07:04:17.747Z,101416.18
2022-11-29T07:06:45.725Z,101421.88
2022-11-29T07:09:21.429Z,101416.18
2022-11-29T07:11:49.464Z,101422.69
2022-11-29T07:14:17.337Z,101413.80
2022-11-29T07:17:02.808Z,101422.69
2022-11-29T07:19:50.997Z,101423.51
2022-11-29T07:22:37.662Z,101425.77
2022-11-29T07:25:27.094Z,101429.69
2022-11-29T07:28:09.129Z,101426.26
2022-11-29T07:31:04.371Z,101424.98
2022-11-29T07:34:08.710Z,101426.26
2022-11-29T07:36:51.483Z,101432.77
2022-11-29T07:39:33.465Z,101429.10
2022-11-29T07:42:28.322Z,101436.03
2022-11-29T07:45:23.612Z,101432.37
2022-11-29T07:47:51.513Z,101438.45
2022-11-29T07:50:20.291Z,101436.72
2022-11-29T07:52:48.899Z,101441.98
2022-11-29T07:55:22.665Z,101444.01
2022-11-29T07:57:50.794Z,101444.73
2022-11-29T08:00:20.404Z,101446.20
2022-11-29T08:02:49.258Z,101446.20
2022-11-29T08:05:17.391Z,101446.20
2022-11-29T08:07:45.175Z,101451.92
2022-11-29T08:10:17.569Z,101453.49
2022-11-29T08:12:48.574Z,101456.70
2022-11-29T08:15:16.998Z,101457.02
2022-11-29T08:17:44.948Z,101455.69
2022-11-29T08:20:14.377Z,101461.60
2022-11-29T08:22:42.465Z,101464.77
2022-11-29T08:25:11.466Z,101466.28
2022-11-29T08:27:40.136Z,101465.59
2022-11-29T08:30:08.664Z,101468.44
2022-11-29T08:32:36.412Z,101466.73
2022-11-29T08:35:04.136Z,101467.88
2022-11-29T08:37:31.766Z,101467.42
2022-11-29T08:40:00.114Z,101467.75
2022-11-29T08:42:27.850Z,101470.99
2022-11-29T08:44:55.613Z,101472.10
2022-11-29T08:47:38.431Z,101468.80
2022-11-29T08:50:13.320Z,101480.11
2022-11-29T08:53:03.191Z,101475.89
2022-11-29T08:55:36.652Z,101474.39
2022-11-29T08:58:08.119Z,101479.75
2022-11-29T09:00:36.301Z,101477.13
2022-11-29T09:03:24.608Z,101476.12
2022-11-29T09:05:53.072Z,101476.35
2022-11-29T09:08:21.265Z,101476.55
2022-11-29T09:10:49.018Z,101483.64
2022-11-29T09:13:17.052Z,101481.95
2022-11-29T09:15:44.809Z,101481.45
2022-11-29T09:18:12.586Z,101486.26
2022-11-29T09:20:44.021Z,101488.98
2022-11-29T09:23:13.229Z,101490.12
2022-11-29T09:25:41.086Z,101492.96
2022-11-29T09:28:08.782Z,101498.69
2022-11-29T09:30:39.040Z,101497.73
2022-11-29T09:33:06.673Z,101497.64
2022-11-29T09:35:35.807Z,101499.11
2022-11-29T09:38:03.494Z,101501.86
2022-11-29T09:40:55.628Z,101501.40
2022-11-29T09:44:01.869Z,101504.27
2022-11-29T09:46:38.167Z,101506.30
2022-11-29T09:49:26.850Z,101508.23
2022-11-29T09:52:14.012Z,101504.02
2022-11-29T09:55:12.567Z,101506.63
2022-11-29T09:57:42.427Z,101501.86
2022-11-29T10:00:17.298Z,101507.77
2022-11-29T10:02:49.474Z,101508.01
2022-11-29T10:05:25.313Z,101501.47
2022-11-29T10:08:08.437Z,101507.38
2022-11-29T10:10:44.701Z,101508.10
2022-11-29T10:13:18.291Z,101503.98
2022-11-29T10:15:48.814Z,101508.30
2022-11-29T10:18:41.411Z,101506.60
2022-11-29T10:21:15.363Z,101508.43
2022-11-29T10:23:44.969Z,101502.15
2022-11-29T10:26:14.484Z,101505.81
2022-11-29T10:28:48.550Z,101503.55
2022-11-29T10:31:22.740Z,101495.55
2022-11-29T10:33:51.329Z,101502.41
2022-11-29T10:36:28.181Z,101495.22
2022-11-29T10:39:02.487Z,101502.64
2022-11-29T10:41:30.246Z,101506.63
2022-11-29T10:44:00.265Z,101498.39
2022-11-29T10:46:37.188Z,101503.79
2022-11-29T10:49:14.283Z,101496.82
2022-11-29T10:51:42.319Z,101493.20
2022-11-29T10:54:31.028Z,101489.76
2022-11-29T10:57:01.502Z,101496.04
2022-11-29T10:59:31.620Z,101497.84
2022-11-29T11:01:59.686Z,101493.29
2022-11-29T11:04:35.157Z,101496.79
2022-11-29T11:07:06.015Z,101494.66
2022-11-29T11:09:34.171Z,101498.30
2022-11-29T11:12:06.174Z,101494.04
2022-11-29T11:14:38.699Z,101500.09
2022-11-29T11:17:17.469Z,101495.19
2022-11-29T11:20:06.814Z,101500.59
2022-11-29T11:22:36.115Z,101496.33
2022-11-29T11:25:26.283Z,101496.79
2022-11-29T11:27:55.170Z,101501.56
2022-11-29T11:30:29.022Z,101489.70
2022-11-29T11:33:41.924Z,101498.85
2022-11-29T11:36:15.989Z,101494.14
2022-11-29T11:38:55.277Z,101493.23
2022-11-29T11:41:56.161Z,101489.70
2022-11-29T11:44:47.499Z,101497.80
2022-11-29T11:47:36.892Z,101500.42
2022-11-29T11:50:08.311Z,101505.78
2022-11-29T11:52:49.890Z,101504.41
2022-11-29T11:55:44.866Z,101496.76
2022-11-29T11:58:15.503Z,101497.34
2022-11-29T12:01:04.335Z,101499.41
2022-11-29T12:03:53.879Z,101497.67
2022-11-29T12:06:59.581Z,101504.64
2022-11-29T12:09:42.157Z,101504.77
2022-11-29T12:12:31.075Z,101505.81
2022-11-29T12:15:21.842Z,101508.01
2022-11-29T12:17:57.793Z,101511.41
2022-11-29T12:20:29.447Z,101512.32
2022-11-29T12:23:24.977Z,101516.21
2022-11-29T12:26:48.890Z,101501.83
2022-11-29T12:29:16.400Z,101506.63
2022-11-29T12:31:43.988Z,101517.48
2022-11-29T12:34:37.107Z,101517.03
2022-11-29T12:37:23.178Z,101523.63
2022-11-29T12:40:21.890Z,101522.63
2022-11-29T12:43:29.564Z,101521.94
2022-11-29T12:46:15.363Z,101518.05
2022-11-29T12:49:01.740Z,101514.87
2022-11-29T12:51:56.001Z,101515.79
2022-11-29T12:55:01.352Z,101512.95
2022-11-29T12:57:41.226Z,101512.23
2022-11-29T13:00:17.755Z,101516.21
2022-11-29T13:03:21.797Z,101516.70
2022-11-29T13:06:19.845Z,101520.66
2022-11-29T13:09:08.637Z,101515.79
2022-11-29T13:11:46.650Z,101517.03
2022-11-29T13:17:28.241Z,101522.75
2022-11-29T13:20:14.355Z,101515.66
2022-11-29T13:23:06.535Z,101525.83
2022-11-29T13:25:43.659Z,101523.73
2022-11-29T13:28:17.172Z,101533.12
2022-11-29T13:30:45.595Z,101530.27
2022-11-29T13:33:25.915Z,101528.45
2022-11-29T13:36:08.520Z,101531.74
2022-11-29T13:38:42.566Z,101526.05
2022-11-29T13:41:32.064Z,101532.66
2022-11-29T13:44:12.424Z,101524.87
2022-11-29T13:47:01.597Z,101531.52
2022-11-29T13:49:59.177Z,101529.49
2022-11-29T13:52:38.638Z,101527.40
2022-11-29T13:55:24.128Z,101537.56
2022-11-29T13:58:28.120Z,101532.66
2022-11-29T14:01:03.638Z,101533.12
2022-11-29T14:03:33.606Z,101532.79
2022-11-29T14:06:13.572Z,101535.18
2022-11-29T14:11:43.810Z,101542.93
2022-11-29T14:14:37.004Z,101533.71
2022-11-29T14:17:07.618Z,101544.76
2022-11-29T14:19:38.051Z,101544.50
2022-11-29T14:22:20.513Z,101546.59
2022-11-29T14:25:01.055Z,101541.33
2022-11-29T14:27:28.587Z,101542.66
2022-11-29T14:29:56.733Z,101549.99
2022-11-29T14:32:25.872Z,101547.28
2022-11-29T14:35:25.417Z,101559.90
2022-11-29T14:37:56.767Z,101560.45
2022-11-29T14:40:42.708Z,101555.68
2022-11-29T14:43:23.679Z,101548.39
2022-11-29T14:46:29.148Z,101551.70
2022-11-29T14:48:57.293Z,101554.08
2022-11-29T14:51:27.509Z,101550.77
2022-11-29T14:54:16.589Z,101551.59
2022-11-29T14:56:46.111Z,101556.47
2022-11-29T14:59:51.307Z,101550.41
2022-11-29T15:02:35.912Z,101556.14
2022-11-29T15:05:15.513Z,101550.41
2022-11-29T15:07:54.402Z,101565.13
2022-11-29T15:10:30.870Z,101561.60
2022-11-29T15:13:01.563Z,101557.48
2022-11-29T15:15:44.154Z,101573.34
2022-11-29T15:18:28.058Z,101561.60
2022-11-29T15:21:10.772Z,101571.84
2022-11-29T15:23:43.683Z,101571.51
2022-11-29T15:26:20.251Z,101575.27
2022-11-29T15:28:48.192Z,101577.30
2022-11-29T15:31:19.952Z,101577.62
2022-11-29T15:33:50.346Z,101577.30
2022-11-29T15:36:23.009Z,101578.12
2022-11-29T15:38:55.919Z,101584.27
2022-11-29T15:41:32.165Z,101579.03
2022-11-29T15:44:03.218Z,101582.30
2022-11-29T15:46:33.970Z,101581.25
2022-11-29T15:49:27.726Z,101593.35
2022-11-29T15:51:59.351Z,101593.81
2022-11-29T15:54:33.275Z,101584.46
2022-11-29T15:57:05.622Z,101587.30
2022-11-29T15:59:41.248Z,101592.99
2022-11-29T16:02:20.785Z,101592.21
2022-11-29T16:04:51.447Z,101587.30
2022-11-29T16:07:21.081Z,101590.87
2022-11-29T16:10:02.046Z,101590.41
2022-11-29T16:12:29.920Z,101592.47
2022-11-29T16:15:00.118Z,101602.34
2022-11-29T16:17:30.629Z,101601.20
2022-11-29T16:20:17.722Z,101591.39
2022-11-29T16:22:45.660Z,101588.22
2022-11-29T16:25:19.882Z,101602.12
2022-11-29T16:27:48.718Z,101602.45
2022-11-29T16:30:28.758Z,101609.84
2022-11-29T16:33:01.684Z,101607.12
2022-11-29T16:35:32.195Z,101609.96
2022-11-29T16:38:01.286Z,101614.94
2022-11-29T16:40:31.824Z,101611.77
2022-11-29T16:43:05.514Z,101613.37
2022-11-29T16:45:42.458Z,101613.37
2022-11-29T16:48:39.343Z,101614.61
2022-11-29T16:51:24.942Z,101618.80
2022-11-29T16:53:54.580Z,101622.00
2022-11-29T16:56:25.568Z,101620.30
2022-11-29T16:59:26.929Z,101624.84
2022-11-29T17:01:52.072Z,101624.48
2022-11-29T17:04:23.904Z,101629.42
2022-11-29T17:06:53.929Z,101628.34
2022-11-29T17:09:30.825Z,101629.42
2022-11-29T17:12:02.092Z,101633.05
2022-11-29T17:14:30.631Z,101634.20
2022-11-29T17:17:01.505Z,101637.40
2022-11-29T17:19:30.522Z,101631.68
2022-11-29T17:21:58.669Z,101628.84
2022-11-29T17:24:26.609Z,101626.91
2022-11-29T17:26:54.353Z,101622.09
2022-11-29T17:29:22.060Z,101630.27
2022-11-29T17:31:51.498Z,101638.84
2022-11-29T17:34:19.362Z,101631.55
2022-11-29T17:36:47.179Z,101641.32
2022-11-29T17:39:16.727Z,101632.89
2022-11-29T17:41:44.645Z,101645.18
2022-11-29T17:44:12.332Z,101639.13
2022-11-29T17:46:40.204Z,101642.77
2022-11-29T17:49:10.513Z,101642.77
2022-11-29T17:51:54.883Z,101646.06
2022-11-29T17:54:23.640Z,101645.18
2022-11-29T17:56:51.917Z,101646.85
2022-11-29T17:59:19.748Z,101646.85
2022-11-29T18:01:50.440Z,101649.27
2022-11-29T18:04:18.411Z,101650.05
2022-11-29T18:06:50.630Z,101656.98
2022-11-29T18:09:19.881Z,101655.74
2022-11-29T18:11:50.116Z,101662.35
2022-11-29T18:14:29.294Z,101649.37
2022-11-29T18:16:57.041Z,101661.27
2022-11-29T18:19:24.977Z,101660.91
2022-11-29T18:21:53.250Z,101662.19
2022-11-29T18:24:21.038Z,101669.12
2022-11-29T18:26:48.954Z,101670.00
2022-11-29T18:29:16.851Z,101665.66
2022-11-29T18:31:47.195Z,101668.95
2022-11-29T18:34:15.703Z,101670.52
2022-11-29T18:36:46.236Z,101674.13
2022-11-29T18:39:19.270Z,101681.41
2022-11-29T18:41:49.790Z,101674.45
2022-11-29T18:44:20.446Z,101673.66
2022-11-29T18:46:48.577Z,101674.13
2022-11-29T18:49:18.400Z,101669.67
2022-11-29T18:51:47.271Z,101673.66
2022-11-29T18:54:16.778Z,101682.20
2022-11-29T18:56:45.855Z,101677.30
2022-11-29T18:59:17.964Z,101672.52
2022-11-29T19:01:48.835Z,101675.79
2022-11-29T19:04:21.836Z,101681.05
2022-11-29T19:06:50.292Z,101675.79
2022-11-29T19:09:24.903Z,101678.63
2022-11-29T19:11:52.761Z,101680.66
2022-11-29T19:14:20.986Z,101679.91
2022-11-29T19:16:50.660Z,101679.09
2022-11-29T19:19:20.051Z,101680.23
2022-11-29T19:21:47.877Z,101678.63
2022-11-29T19:24:16.913Z,101679.81
2022-11-29T19:26:46.476Z,101682.27
2022-11-29T19:29:15.296Z,101682.72
2022-11-29T19:31:43.773Z,101683.08
2022-11-29T19:34:11.760Z,101686.74
2022-11-29T19:36:44.767Z,101689.59
2022-11-29T19:39:15.568Z,101691.19
2022-11-29T19:41:48.235Z,101677.75
2022-11-29T19:44:17.726Z,101683.44
2022-11-29T19:46:49.303Z,101689.59
2022-11-29T19:49:17.068Z,101693.58
2022-11-29T19:51:44.886Z,101696.42
2022-11-29T19:54:13.127Z,101693.97
2022-11-29T19:56:41.001Z,101695.64
2022-11-29T19:59:09.501Z,101692.34
2022-11-29T20:01:41.241Z,101690.73
2022-11-29T20:04:10.740Z,101694.40
2022-11-29T20:06:38.526Z,101696.00
2022-11-29T20:09:07.304Z,101693.97
2022-11-29T20:11:35.071Z,101689.85
2022-11-29T20:14:04.665Z,101691.88
2022-11-29T20:16:32.665Z,101698.38
2022-11-29T20:19:00.748Z,101699.17
2022-11-29T20:21:33.311Z,101691.13
2022-11-29T20:24:03.717Z,101699.17
2022-11-29T20:26:33.982Z,101698.38
2022-11-29T20:29:02.872Z,101698.02
2022-11-29T20:31:31.216Z,101704.96
2022-11-29T20:33:59.285Z,101710.65
2022-11-29T20:36:48.993Z,101717.16
2022-11-29T20:39:43.308Z,101705.77
2022-11-29T20:42:40.070Z,101709.86
2022-11-29T20:45:10.146Z,101714.67
2022-11-29T20:48:02.010Z,101715.48
2022-11-29T20:50:32.808Z,101719.48
2022-11-29T20:53:17.399Z,101716.63
2022-11-29T20:55:48.032Z,101715.36
2022-11-29T20:58:16.459Z,101716.99
2022-11-29T21:00:44.234Z,101712.09
2022-11-29T21:03:19.268Z,101717.35
2022-11-29T21:05:47.792Z,101718.95
2022-11-29T21:08:17.307Z,101712.45
2022-11-29T21:10:45.175Z,101717.71
2022-11-29T21:13:14.276Z,101716.11
2022-11-29T21:15:42.644Z,101720.20
2022-11-29T21:18:27.825Z,101722.68
2022-11-29T21:21:17.620Z,101722.32
2022-11-29T21:23:58.291Z,101724.38
2022-11-29T21:26:34.947Z,101718.34
2022-11-29T21:29:15.241Z,101723.56
2022-11-29T21:31:43.140Z,101724.45
2022-11-29T21:34:10.959Z,101726.15
2022-11-29T21:36:39.815Z,101727.75
2022-11-29T21:39:09.083Z,101732.20
2022-11-29T21:41:37.348Z,101726.97
2022-11-29T21:44:07.141Z,101727.81
2022-11-29T21:46:35.628Z,101724.61
2022-11-29T21:49:03.451Z,101728.80
2022-11-29T21:51:31.117Z,101727.55
2022-11-29T21:53:58.752Z,101725.95
2022-11-29T21:56:26.579Z,101729.26
2022-11-29T21:58:54.335Z,101730.86
2022-11-29T22:01:22.351Z,101728.93
2022-11-29T22:03:53.654Z,101734.68
2022-11-29T22:06:22.283Z,101724.16
2022-11-29T22:08:50.001Z,101729.84
2022-11-29T22:11:31.742Z,101722.48
2022-11-29T22:14:19.773Z,101721.30
2022-11-29T22:16:50.243Z,101725.43
2022-11-29T22:19:20.404Z,101720.20
2022-11-29T22:21:50.533Z,101716.96
2022-11-29T22:24:20.353Z,101719.45
2022-11-29T22:26:49.021Z,101732.43
2022-11-29T22:29:16.956Z,101729.58
2022-11-29T22:31:46.817Z,101721.05
2022-11-29T22:34:15.048Z,101719.90
2022-11-29T22:36:43.384Z,101725.23
2022-11-29T22:39:11.094Z,101720.33
2022-11-29T22:41:39.858Z,101720.69
2022-11-29T22:44:08.300Z,101709.66
2022-11-29T22:46:36.813Z,101713.69
2022-11-29T22:49:04.773Z,101710.84
2022-11-29T22:51:36.297Z,101709.14
2022-11-29T22:54:07.711Z,101712.77
2022-11-29T22:56:38.578Z,101720.88
2022-11-29T22:59:06.908Z,101722.48
2022-11-29T23:01:36.841Z,101718.76
2022-11-29T23:04:08.167Z,101723.20
2022-11-29T23:06:39.009Z,101712.61
2022-11-29T23:09:11.600Z,101709.34
2022-11-29T23:11:39.904Z,101716.63
2022-11-29T23:14:07.783Z,101712.97
2022-11-29T23:16:35.602Z,101716.70
2022-11-29T23:19:03.466Z,101728.44
2022-11-29T23:21:36.383Z,101723.20
2022-11-29T23:24:04.783Z,101721.60
2022-11-29T23:26:40.521Z,101719.54
2022-11-29T23:29:11.420Z,101721.15
2022-11-29T23:31:39.928Z,101728.11
2022-11-29T23:34:08.792Z,101726.05
2022-11-29T23:36:36.504Z,101733.34
2022-11-29T23:39:04.243Z,101720.36
2022-11-29T23:41:31.906Z,101721.60
2022-11-29T23:44:00.746Z,101729.78
2022-11-29T23:46:28.470Z,101727.75
2022-11-29T23:48:56.248Z,101723.73
2022-11-29T23:51:23.919Z,101725.33
2022-11-29T23:53:55.581Z,101714.38
2022-11-29T23:56:23.559Z,101716.08
2022-11-29T23:58:51.331Z,101722.55
